Time;durP1;ratioP1;P1;durP2;ratioP2;P2;SDS_P1;SDS_P2;PMS_P1;PMS_P2;Temp;Humidity;BMP_temperature;BMP_pressure;BME280_temperature;BME280_humidity;BME280_pressure;Samples;Min_cycle;Max_cycle;Signal;HPM_P1;HPM_P2
2023/09/19 00:00:43;;;;;;;2.33;1.05;;;15.00;99.90;;;;;;5001627;28;20061;-70
2023/09/19 00:03:11;;;;;;;7.78;1.50;;;15.00;99.90;;;;;;4970305;28;20049;-70
2023/09/19 00:05:38;;;;;;;4.72;1.35;;;15.00;99.90;;;;;;4987468;28;20910;-70
2023/09/19 00:08:04;;;;;;;3.95;1.27;;;14.90;99.90;;;;;;4980181;28;20049;-69
2023/09/19 00:10:31;;;;;;;5.93;1.35;;;14.90;99.90;;;;;;4987411;28;20041;-69
2023/09/19 00:13:05;;;;;;;2.63;1.10;;;14.90;99.90;;;;;;5007169;28;20399;-70
2023/09/19 00:15:35;;;;;;;2.72;0.90;;;14.80;99.90;;;;;;5008715;28;20475;-69
2023/09/19 00:18:01;;;;;;;5.22;1.38;;;14.70;99.90;;;;;;4989397;28;20052;-69
2023/09/19 00:20:28;;;;;;;4.63;1.50;;;14.70;99.90;;;;;;4991580;28;20069;-69
2023/09/19 00:22:53;;;;;;;6.05;1.38;;;14.70;99.90;;;;;;4990276;28;20393;-69
2023/09/19 00:25:22;;;;;;;3.83;1.13;;;14.70;99.90;;;;;;4974551;28;20042;-69
2023/09/19 00:27:51;;;;;;;6.25;1.02;;;14.70;99.90;;;;;;4990338;28;20037;-69
2023/09/19 00:30:19;;;;;;;3.42;1.15;;;14.60;99.90;;;;;;4995209;28;20481;-69
2023/09/19 00:32:49;;;;;;;7.95;1.30;;;14.60;99.90;;;;;;4991251;28;20058;-69
2023/09/19 00:35:15;;;;;;;3.38;0.88;;;14.70;99.90;;;;;;4990138;28;20046;-69
2023/09/19 00:37:41;;;;;;;5.53;1.38;;;14.60;99.90;;;;;;4990866;28;20518;-70
2023/09/19 00:40:17;;;;;;;2.42;1.02;;;14.60;99.90;;;;;;4978095;28;20500;-68
2023/09/19 00:42:46;;;;;;;6.03;1.33;;;14.60;99.90;;;;;;4971097;28;20401;-69
2023/09/19 00:45:14;;;;;;;3.78;1.20;;;14.60;99.90;;;;;;4987210;28;20061;-69
2023/09/19 00:47:48;;;;;;;4.00;1.00;;;14.60;99.90;;;;;;5005845;28;20049;-69
2023/09/19 00:50:17;;;;;;;6.43;1.38;;;14.50;99.90;;;;;;4989628;28;20046;-69
2023/09/19 00:52:44;;;;;;;4.00;1.10;;;14.50;99.90;;;;;;4989164;28;20034;-70
2023/09/19 00:55:11;;;;;;;6.70;1.60;;;14.50;99.90;;;;;;4974898;28;20633;-69
2023/09/19 00:57:39;;;;;;;3.95;1.27;;;14.50;99.90;;;;;;5038824;23;20069;-69
2023/09/19 01:00:08;;;;;;;1.70;0.82;;;14.40;99.90;;;;;;5015900;28;20081;-69
2023/09/19 01:02:35;;;;;;;4.30;1.07;;;14.50;99.90;;;;;;5027597;28;20060;-70
2023/09/19 01:05:00;;;;;;;7.13;1.67;;;14.40;99.90;;;;;;5026593;28;20293;-69
2023/09/19 01:07:30;;;;;;;7.45;1.15;;;14.40;99.90;;;;;;5011195;28;20119;-70
2023/09/19 01:09:58;;;;;;;3.45;1.17;;;14.40;99.90;;;;;;5009884;28;20043;-69
2023/09/19 01:12:43;;;;;;;4.82;1.30;;;14.40;99.90;;;;;;5028607;28;20048;-69
2023/09/19 01:15:33;;;;;;;3.63;1.17;;;14.30;99.90;;;;;;5011812;28;20049;-69
2023/09/19 01:18:24;;;;;;;8.55;1.27;;;14.30;99.90;;;;;;4979420;28;20058;-69
2023/09/19 01:21:18;;;;;;;6.68;1.35;;;14.30;99.90;;;;;;5005498;28;20048;-69
2023/09/19 01:23:52;;;;;;;10.27;1.42;;;14.30;99.90;;;;;;4993695;28;20483;-69
2023/09/19 01:27:03;;;;;;;4.63;1.30;;;14.20;99.90;;;;;;5009559;28;20049;-69
2023/09/19 01:29:39;;;;;;;5.28;1.40;;;14.20;99.90;;;;;;5010749;28;20045;-69
2023/09/19 01:32:09;;;;;;;4.88;1.50;;;14.10;99.90;;;;;;5008625;28;20491;-69
2023/09/19 01:34:50;;;;;;;8.57;1.42;;;14.10;99.90;;;;;;5009381;28;20456;-68
2023/09/19 01:37:19;;;;;;;5.10;1.67;;;14.10;99.90;;;;;;5001715;28;20099;-69
2023/09/19 01:39:51;;;;;;;5.65;1.23;;;14.00;99.90;;;;;;5008959;28;20552;-70
2023/09/19 01:42:39;;;;;;;4.32;1.30;;;14.00;99.90;;;;;;5010044;28;20069;-69
2023/09/19 01:45:18;;;;;;;8.20;1.00;;;13.90;99.90;;;;;;5010786;28;20084;-69
2023/09/19 01:47:56;;;;;;;4.30;1.02;;;13.90;99.90;;;;;;5008861;28;20046;-69
2023/09/19 01:50:41;;;;;;;3.60;1.23;;;13.90;99.90;;;;;;5011101;28;20045;-69
2023/09/19 01:53:15;;;;;;;5.35;1.40;;;13.90;99.90;;;;;;5008928;28;20049;-69
2023/09/19 01:55:49;;;;;;;3.90;1.15;;;13.80;99.90;;;;;;5026834;28;20075;-69
2023/09/19 01:58:35;;;;;;;6.72;1.30;;;13.70;99.90;;;;;;5025469;28;20077;-69
2023/09/19 02:01:03;;;;;;;6.32;1.20;;;13.70;99.90;;;;;;5008857;28;20049;-69
2023/09/19 02:03:30;;;;;;;2.17;1.05;;;13.70;99.90;;;;;;5019119;28;20062;-69
2023/09/19 02:05:56;;;;;;;4.75;1.30;;;13.70;99.90;;;;;;4992304;28;20499;-69
2023/09/19 02:08:25;;;;;;;9.00;1.95;;;13.60;99.90;;;;;;5009151;28;20048;-70
2023/09/19 02:10:52;;;;;;;3.45;1.13;;;13.60;99.90;;;;;;5023771;28;20045;-69
2023/09/19 02:13:26;;;;;;;4.00;1.08;;;13.60;99.90;;;;;;5009751;28;20553;-69
2023/09/19 02:15:52;;;;;;;3.33;1.25;;;13.60;99.90;;;;;;5026505;28;20513;-69
2023/09/19 02:18:18;;;;;;;3.60;1.10;;;13.60;99.90;;;;;;5026683;28;20045;-70
2023/09/19 02:20:44;;;;;;;3.25;1.38;;;13.60;99.90;;;;;;4981286;28;20492;-69
2023/09/19 02:23:10;;;;;;;6.53;1.25;;;13.50;99.90;;;;;;4992560;28;20119;-69
2023/09/19 02:25:37;;;;;;;5.35;1.20;;;13.50;99.90;;;;;;4993627;28;20049;-69
2023/09/19 02:28:03;;;;;;;5.18;1.55;;;13.50;99.90;;;;;;5009183;28;20518;-69
2023/09/19 02:30:30;;;;;;;3.38;1.38;;;13.40;99.90;;;;;;5026533;28;20037;-69
2023/09/19 02:32:56;;;;;;;9.18;2.05;;;13.40;99.90;;;;;;5009112;28;20510;-68
2023/09/19 02:35:22;;;;;;;4.03;1.25;;;13.40;99.90;;;;;;5008013;28;20038;-68
2023/09/19 02:37:48;;;;;;;5.65;1.25;;;13.30;99.90;;;;;;4993474;28;20115;-69
2023/09/19 02:40:25;;;;;;;5.10;2.35;;;13.30;99.90;;;;;;5026017;28;20470;-69
2023/09/19 02:42:55;;;;;;;8.52;1.40;;;13.30;99.90;;;;;;5020414;28;20045;-69
2023/09/19 02:45:23;;;;;;;4.45;1.42;;;13.30;99.90;;;;;;5008761;28;20057;-68
2023/09/19 02:47:49;;;;;;;6.70;1.45;;;13.20;99.90;;;;;;5008587;28;20049;-69
2023/09/19 02:50:16;;;;;;;6.40;1.23;;;13.20;99.90;;;;;;5009812;28;20053;-69
2023/09/19 02:52:48;;;;;;;4.35;1.20;;;13.20;99.90;;;;;;5024155;28;20128;-68
2023/09/19 02:55:17;;;;;;;6.40;1.17;;;13.20;99.90;;;;;;5025679;28;20053;-69
2023/09/19 02:57:51;;;;;;;9.03;1.63;;;13.20;99.90;;;;;;5007537;28;20053;-68
2023/09/19 03:00:21;;;;;;;4.78;1.52;;;13.20;99.90;;;;;;5027486;28;20686;-68
2023/09/19 03:02:56;;;;;;;7.70;1.40;;;13.20;99.90;;;;;;5008621;28;20041;-68
2023/09/19 03:05:23;;;;;;;4.35;1.30;;;13.10;99.90;;;;;;5025989;28;20510;-68
2023/09/19 03:07:52;;;;;;;10.43;1.65;;;13.10;99.90;;;;;;5018159;28;20041;-68
2023/09/19 03:10:19;;;;;;;3.17;1.20;;;13.10;99.90;;;;;;5024132;28;20140;-68
2023/09/19 03:12:46;;;;;;;3.10;1.13;;;13.10;99.90;;;;;;5026541;28;20045;-69
2023/09/19 03:15:15;;;;;;;5.38;1.40;;;13.10;99.90;;;;;;5008096;28;20048;-68
2023/09/19 03:17:51;;;;;;;4.70;1.38;;;13.10;99.90;;;;;;5008668;28;20045;-68
2023/09/19 03:20:17;;;;;;;4.82;1.25;;;13.10;99.90;;;;;;5009602;28;20045;-69
2023/09/19 03:22:45;;;;;;;4.45;1.10;;;13.10;99.90;;;;;;5024653;28;20060;-68
2023/09/19 03:25:11;;;;;;;3.92;0.95;;;13.10;99.90;;;;;;5009437;28;20045;-69
2023/09/19 03:27:40;;;;;;;6.95;1.35;;;13.10;99.90;;;;;;4989803;28;20045;-69
2023/09/19 03:30:13;;;;;;;6.17;1.53;;;13.10;99.90;;;;;;5005913;28;20058;-68
2023/09/19 03:32:49;;;;;;;8.13;1.38;;;13.10;99.90;;;;;;5005026;28;20060;-69
2023/09/19 03:35:16;;;;;;;4.78;1.08;;;13.10;99.90;;;;;;5025847;28;20096;-69
2023/09/19 03:37:44;;;;;;;4.10;0.98;;;13.10;99.90;;;;;;5026801;28;20423;-68
2023/09/19 03:40:10;;;;;;;5.70;1.50;;;13.10;99.90;;;;;;4993509;28;20053;-69
2023/09/19 03:42:40;;;;;;;6.57;1.52;;;13.10;99.90;;;;;;5019630;28;20068;-69
2023/09/19 03:45:09;;;;;;;7.38;1.20;;;13.10;99.90;;;;;;5007066;28;20136;-68
2023/09/19 03:47:35;;;;;;;5.53;0.98;;;13.00;99.90;;;;;;5010895;28;20376;-68
2023/09/19 03:50:00;;;;;;;6.75;1.20;;;13.10;99.90;;;;;;5011234;28;20109;-68
2023/09/19 03:52:26;;;;;;;5.55;1.10;;;13.10;99.90;;;;;;5007937;28;20354;-68
2023/09/19 03:54:52;;;;;;;6.93;1.13;;;13.10;99.90;;;;;;5007348;28;20056;-68
2023/09/19 03:57:20;;;;;;;6.20;1.25;;;13.10;99.90;;;;;;5008407;28;20062;-68
2023/09/19 03:59:47;;;;;;;9.15;1.30;;;13.10;99.90;;;;;;5006660;28;20041;-69
2023/09/19 04:02:21;;;;;;;5.75;1.30;;;13.00;99.90;;;;;;5027632;28;20056;-69
2023/09/19 04:04:51;;;;;;;9.40;1.60;;;13.00;99.90;;;;;;5013083;28;20402;-68
2023/09/19 04:07:22;;;;;;;7.07;1.30;;;13.00;99.90;;;;;;5027774;28;20037;-68
2023/09/19 04:09:49;;;;;;;6.97;1.50;;;13.00;99.90;;;;;;5029160;28;20041;-69
2023/09/19 04:12:16;;;;;;;7.55;1.40;;;13.00;99.90;;;;;;5011375;28;20049;-68
2023/09/19 04:14:43;;;;;;;2.58;0.85;;;13.00;99.90;;;;;;4994661;28;20427;-69
2023/09/19 04:17:10;;;;;;;5.18;1.10;;;13.00;99.90;;;;;;5012286;28;20045;-68
2023/09/19 04:19:35;;;;;;;5.40;1.33;;;12.90;99.90;;;;;;5010827;28;20055;-69
2023/09/19 04:22:01;;;;;;;7.07;1.10;;;13.00;99.90;;;;;;5012285;28;20047;-68
2023/09/19 04:24:27;;;;;;;6.38;1.88;;;13.00;99.90;;;;;;4991828;28;20088;-69
2023/09/19 04:26:53;;;;;;;6.05;1.17;;;13.00;99.90;;;;;;5008514;28;20506;-68
2023/09/19 04:29:19;;;;;;;12.25;1.80;;;13.00;99.90;;;;;;5006374;28;20095;-69
2023/09/19 04:31:45;;;;;;;3.92;0.90;;;13.00;99.90;;;;;;5011252;28;20037;-69
2023/09/19 04:34:15;;;;;;;7.57;1.85;;;13.00;99.90;;;;;;5011471;28;20104;-68
2023/09/19 04:36:41;;;;;;;4.25;1.00;;;13.00;99.90;;;;;;5028318;28;20045;-69
2023/09/19 04:39:07;;;;;;;5.55;1.20;;;13.10;99.90;;;;;;5029773;28;20061;-69
2023/09/19 04:41:34;;;;;;;10.95;1.67;;;13.10;99.90;;;;;;5026905;28;20048;-68
2023/09/19 04:44:00;;;;;;;6.50;1.52;;;13.00;99.90;;;;;;5003033;28;20038;-69
2023/09/19 04:46:25;;;;;;;5.32;1.35;;;13.00;99.90;;;;;;5006859;28;20049;-68
2023/09/19 04:48:51;;;;;;;4.63;1.40;;;13.10;99.90;;;;;;5008694;28;20046;-68
2023/09/19 04:51:18;;;;;;;5.82;1.30;;;13.00;99.90;;;;;;5005367;28;20047;-69
2023/09/19 04:53:44;;;;;;;9.05;1.63;;;13.10;99.90;;;;;;5027537;28;20057;-69
2023/09/19 04:56:09;;;;;;;3.33;1.02;;;13.10;99.90;;;;;;5027710;28;20038;-69
2023/09/19 04:58:35;;;;;;;5.88;1.55;;;13.10;99.90;;;;;;4993221;28;20100;-69
2023/09/19 05:01:02;;;;;;;6.47;1.17;;;13.10;99.90;;;;;;5010418;28;20694;-69
2023/09/19 05:03:27;;;;;;;4.80;1.08;;;13.00;99.90;;;;;;5027674;28;20124;-68
2023/09/19 05:05:54;;;;;;;4.00;1.13;;;13.10;99.90;;;;;;5029403;28;20120;-69
2023/09/19 05:08:19;;;;;;;8.75;1.40;;;13.10;99.90;;;;;;4994349;28;20061;-68
2023/09/19 05:10:45;;;;;;;4.60;1.13;;;13.10;99.90;;;;;;4994183;28;20053;-68
2023/09/19 05:13:12;;;;;;;4.97;1.30;;;13.10;99.90;;;;;;4994714;28;20059;-69
2023/09/19 05:15:37;;;;;;;5.82;1.20;;;13.10;99.90;;;;;;5006357;28;20090;-69
2023/09/19 05:18:03;;;;;;;3.22;0.95;;;13.10;99.90;;;;;;5007587;28;20092;-69
2023/09/19 05:20:30;;;;;;;10.02;1.50;;;13.20;99.90;;;;;;5002202;28;20052;-68
2023/09/19 05:23:12;;;;;;;7.40;1.33;;;13.20;99.90;;;;;;4994926;28;20042;-69
2023/09/19 05:25:39;;;;;;;6.95;1.27;;;13.20;99.90;;;;;;5010676;28;20121;-69
2023/09/19 05:28:06;;;;;;;7.20;1.70;;;13.20;99.90;;;;;;5009669;28;20210;-69
2023/09/19 05:30:32;;;;;;;4.20;1.20;;;13.20;99.90;;;;;;5028081;28;20136;-68
2023/09/19 05:32:58;;;;;;;6.25;1.35;;;13.30;99.90;;;;;;4985386;28;20045;-69
2023/09/19 05:35:26;;;;;;;3.67;1.00;;;13.30;99.90;;;;;;5011096;28;20132;-69
2023/09/19 05:37:52;;;;;;;3.25;1.23;;;13.30;99.90;;;;;;5027154;28;20076;-69
2023/09/19 05:40:19;;;;;;;8.65;1.60;;;13.30;99.90;;;;;;5027216;28;20076;-69
2023/09/19 05:42:45;;;;;;;3.30;1.00;;;13.30;99.90;;;;;;4993830;28;20045;-68
2023/09/19 05:45:12;;;;;;;11.48;1.65;;;13.30;99.90;;;;;;5009527;28;20099;-68
2023/09/19 05:47:42;;;;;;;4.63;1.20;;;13.40;99.90;;;;;;5004565;28;20046;-68
2023/09/19 05:50:09;;;;;;;4.35;1.30;;;13.40;99.90;;;;;;5009298;28;20517;-69
2023/09/19 05:52:42;;;;;;;6.03;1.02;;;13.40;99.90;;;;;;5010844;28;20077;-69
2023/09/19 05:55:08;;;;;;;6.18;1.10;;;13.40;99.90;;;;;;5008609;28;20056;-68
2023/09/19 05:57:35;;;;;;;5.72;1.02;;;13.50;99.90;;;;;;5010583;28;20049;-68
2023/09/19 06:00:01;;;;;;;6.90;1.42;;;13.50;99.90;;;;;;5009318;28;20054;-69
2023/09/19 06:02:28;;;;;;;7.53;1.10;;;13.50;99.90;;;;;;5027556;28;20044;-69
2023/09/19 06:04:55;;;;;;;2.97;1.17;;;13.50;99.90;;;;;;5028555;28;20041;-68
2023/09/19 06:07:23;;;;;;;3.35;1.30;;;13.60;99.90;;;;;;4994858;28;20053;-68
2023/09/19 06:09:49;;;;;;;7.43;1.48;;;13.50;99.90;;;;;;5009780;28;20056;-69
2023/09/19 06:12:17;;;;;;;5.78;1.35;;;13.60;99.90;;;;;;5007966;28;20038;-68
2023/09/19 06:14:43;;;;;;;6.38;1.42;;;13.60;99.90;;;;;;5025741;28;20048;-69
2023/09/19 06:17:09;;;;;;;5.13;1.40;;;13.60;99.90;;;;;;5026786;28;20053;-68
2023/09/19 06:19:35;;;;;;;5.93;1.30;;;13.60;99.90;;;;;;5010012;28;20095;-69
2023/09/19 06:22:00;;;;;;;3.55;1.38;;;13.60;99.90;;;;;;5009873;28;20152;-68
2023/09/19 06:24:26;;;;;;;5.43;1.60;;;13.60;99.90;;;;;;4991084;28;21181;-69
2023/09/19 06:26:54;;;;;;;7.40;1.50;;;13.70;99.90;;;;;;5006547;28;20565;-68
2023/09/19 06:29:23;;;;;;;7.03;1.42;;;13.70;99.90;;;;;;5001064;28;20041;-69
2023/09/19 06:31:48;;;;;;;4.45;1.70;;;13.70;99.90;;;;;;4990994;28;20037;-68
2023/09/19 06:34:15;;;;;;;7.63;1.42;;;13.80;99.90;;;;;;5004882;28;20057;-69
2023/09/19 06:36:41;;;;;;;8.68;1.42;;;13.80;99.90;;;;;;5027274;28;20049;-68
2023/09/19 06:39:10;;;;;;;5.78;2.22;;;13.80;99.90;;;;;;5009131;28;20046;-68
2023/09/19 06:41:38;;;;;;;5.90;1.20;;;13.80;99.90;;;;;;5020280;28;20046;-69
2023/09/19 06:44:05;;;;;;;9.00;2.22;;;13.90;99.90;;;;;;5026941;28;20384;-68
2023/09/19 06:46:34;;;;;;;8.27;1.55;;;13.90;99.90;;;;;;5007732;28;20076;-68
2023/09/19 06:49:06;;;;;;;5.78;1.38;;;13.90;99.90;;;;;;5009858;28;20041;-69
2023/09/19 06:51:32;;;;;;;3.88;1.27;;;13.90;99.90;;;;;;5007926;28;20054;-68
2023/09/19 06:53:58;;;;;;;4.40;1.48;;;14.00;99.90;;;;;;4993922;28;20084;-69
2023/09/19 06:56:24;;;;;;;8.73;1.88;;;14.10;99.90;;;;;;5008671;28;20419;-68
2023/09/19 06:58:50;;;;;;;11.23;1.92;;;14.10;99.90;;;;;;4991883;28;20124;-69
2023/09/19 07:01:16;;;;;;;7.22;1.35;;;14.00;99.90;;;;;;5025474;28;20582;-68
2023/09/19 07:03:45;;;;;;;7.15;1.48;;;14.10;99.90;;;;;;5023996;28;20151;-68
2023/09/19 07:06:11;;;;;;;6.40;1.38;;;14.10;99.90;;;;;;5017065;28;20050;-69
2023/09/19 07:08:38;;;;;;;5.57;1.30;;;14.20;99.90;;;;;;4991838;28;20059;-69
2023/09/19 07:11:06;;;;;;;6.65;1.70;;;14.20;99.90;;;;;;5025094;28;20085;-69
2023/09/19 07:13:32;;;;;;;5.63;2.13;;;14.20;99.90;;;;;;4998376;28;20050;-68
2023/09/19 07:15:59;;;;;;;9.32;1.60;;;14.30;99.90;;;;;;5023845;28;20129;-69
2023/09/19 07:18:25;;;;;;;12.23;1.35;;;14.30;99.90;;;;;;5008572;28;20558;-68
2023/09/19 07:20:51;;;;;;;9.98;1.80;;;14.30;99.90;;;;;;5008383;28;20423;-68
2023/09/19 07:23:25;;;;;;;6.97;1.58;;;14.30;99.90;;;;;;5011835;28;20052;-68
2023/09/19 07:25:51;;;;;;;8.07;1.40;;;14.40;99.90;;;;;;5027880;28;20053;-68
2023/09/19 07:28:19;;;;;;;7.55;1.48;;;14.40;99.90;;;;;;5013373;28;20055;-68
2023/09/19 07:30:44;;;;;;;8.15;1.80;;;14.40;99.90;;;;;;5012256;28;20117;-68
2023/09/19 07:33:11;;;;;;;10.55;2.00;;;14.50;99.90;;;;;;5012506;28;20088;-68
2023/09/19 07:35:40;;;;;;;9.95;1.70;;;14.60;99.90;;;;;;5011574;28;20129;-69
2023/09/19 07:38:06;;;;;;;4.32;1.40;;;14.60;99.90;;;;;;5011786;28;20045;-69
2023/09/19 07:40:32;;;;;;;8.23;1.88;;;14.60;99.90;;;;;;5030723;28;21001;-68
2023/09/19 07:43:01;;;;;;;4.72;1.85;;;14.70;99.90;;;;;;5009336;28;20053;-68
2023/09/19 07:45:29;;;;;;;8.55;1.60;;;14.70;99.90;;;;;;5006079;28;20582;-69
2023/09/19 07:47:56;;;;;;;6.50;1.38;;;14.70;99.90;;;;;;5011594;28;20060;-68
2023/09/19 07:50:22;;;;;;;6.18;1.67;;;14.80;99.90;;;;;;5009506;28;20092;-69
2023/09/19 07:52:50;;;;;;;10.40;1.75;;;14.80;99.90;;;;;;5020502;28;20041;-68
2023/09/19 07:55:17;;;;;;;8.32;1.95;;;14.80;99.90;;;;;;4994477;28;20049;-68
2023/09/19 07:57:46;;;;;;;6.20;1.67;;;14.90;99.90;;;;;;5026294;28;20053;-68
2023/09/19 08:00:13;;;;;;;7.15;1.65;;;15.00;99.90;;;;;;5025819;28;20084;-68
2023/09/19 08:02:40;;;;;;;5.05;1.45;;;15.00;99.90;;;;;;5028099;28;20514;-68
2023/09/19 08:05:18;;;;;;;4.03;1.20;;;15.10;99.90;;;;;;4977335;28;20045;-68
2023/09/19 08:07:48;;;;;;;6.97;1.73;;;15.20;99.90;;;;;;5026106;28;20322;-68
2023/09/19 08:10:15;;;;;;;12.98;2.28;;;15.20;99.90;;;;;;5014534;28;20053;-69
2023/09/19 08:12:46;;;;;;;9.85;1.80;;;15.20;99.90;;;;;;5008787;28;20091;-67
2023/09/19 08:15:16;;;;;;;6.93;2.28;;;15.20;99.90;;;;;;5008002;28;20514;-68
2023/09/19 08:17:43;;;;;;;8.10;1.90;;;15.30;99.90;;;;;;5018074;28;20467;-67
2023/09/19 08:20:18;;;;;;;6.68;1.48;;;15.30;99.90;;;;;;5025178;28;20091;-68
2023/09/19 08:22:56;;;;;;;12.43;1.88;;;15.30;99.90;;;;;;5024967;28;20054;-67
2023/09/19 08:25:23;;;;;;;11.85;1.67;;;15.40;99.90;;;;;;5020488;28;20466;-68
2023/09/19 08:27:50;;;;;;;13.85;1.50;;;15.50;99.90;;;;;;5020393;28;20045;-68
2023/09/19 08:30:18;;;;;;;9.73;2.20;;;15.60;99.90;;;;;;5000252;28;20100;-68
2023/09/19 08:32:44;;;;;;;6.63;1.95;;;15.80;99.90;;;;;;5028174;28;20060;-67
2023/09/19 08:35:11;;;;;;;6.10;1.67;;;15.90;99.90;;;;;;5016556;28;20037;-67
2023/09/19 08:37:36;;;;;;;10.07;2.13;;;16.10;99.90;;;;;;5028393;28;20494;-68
2023/09/19 08:40:02;;;;;;;9.02;1.55;;;16.20;99.90;;;;;;5017536;28;20092;-67
2023/09/19 08:42:28;;;;;;;9.77;1.83;;;16.40;99.90;;;;;;4997040;28;20077;-68
2023/09/19 08:44:55;;;;;;;5.85;1.23;;;16.60;99.90;;;;;;4989782;28;20073;-67
2023/09/19 08:47:35;;;;;;;5.95;1.35;;;16.70;99.90;;;;;;5006332;28;20038;-67
2023/09/19 08:50:14;;;;;;;6.88;2.38;;;16.80;99.90;;;;;;4977196;28;20120;-67
2023/09/19 08:52:43;;;;;;;5.87;1.80;;;16.80;99.90;;;;;;5018204;28;20045;-67
2023/09/19 08:55:13;;;;;;;;;;;16.70;99.90;;;;;;5019989;28;20046;-67
2023/09/19 08:57:42;;;;;;;8.75;1.90;;;16.70;99.90;;;;;;5020278;28;19929;-67
2023/09/19 09:00:12;;;;;;;8.53;1.80;;;16.80;99.90;;;;;;5025982;28;20056;-67
2023/09/19 09:02:40;;;;;;;;;;;16.70;99.90;;;;;;5007986;28;20292;-67
2023/09/19 09:05:11;;;;;;;11.00;1.80;;;16.60;99.90;;;;;;5019609;28;20413;-67
2023/09/19 09:07:37;;;;;;;10.35;1.92;;;16.60;99.90;;;;;;5017287;28;20066;-67
2023/09/19 09:10:04;;;;;;;7.35;1.67;;;16.60;99.90;;;;;;5005247;28;20132;-67
2023/09/19 09:12:30;;;;;;;8.07;1.98;;;16.60;99.90;;;;;;5029499;28;20367;-67
2023/09/19 09:14:57;;;;;;;5.85;1.73;;;16.70;99.90;;;;;;5028651;28;20204;-67
2023/09/19 09:17:24;;;;;;;8.82;1.98;;;16.80;99.90;;;;;;5010599;28;20045;-67
2023/09/19 09:19:53;;;;;;;4.18;1.60;;;16.80;99.90;;;;;;5010599;28;20071;-67
2023/09/19 09:22:21;;;;;;;7.03;1.67;;;16.80;99.90;;;;;;5010146;28;20053;-67
2023/09/19 09:25:04;;;;;;;8.55;2.25;;;16.80;99.90;;;;;;5028841;28;20045;-68
2023/09/19 09:27:32;;;;;;;8.93;2.25;;;16.80;99.90;;;;;;5027940;28;20049;-67
2023/09/19 09:29:58;;;;;;;3.33;1.58;;;16.70;99.90;;;;;;4981326;28;20046;-68
2023/09/19 09:32:36;;;;;;;12.38;2.38;;;16.70;99.90;;;;;;5010942;28;20053;-67
2023/09/19 09:35:09;;;;;;;8.25;1.88;;;16.60;99.90;;;;;;5027172;28;20041;-67
2023/09/19 09:37:38;;;;;;;8.18;2.03;;;16.60;99.90;;;;;;5029043;28;20049;-67
2023/09/19 09:42:46;;;;;;;10.60;1.90;;;16.70;99.90;;;;;;5021717;28;20139;-67
2023/09/19 09:45:12;;;;;;;;;;;16.80;99.90;;;;;;5005283;28;20054;-68
2023/09/19 09:47:55;;;;;;;12.02;2.65;;;16.90;99.90;;;;;;4991606;28;19925;-67
2023/09/19 09:53:08;;;;;;;8.88;2.10;;;17.10;99.90;;;;;;4999734;28;20080;-68
2023/09/19 09:56:05;;;;;;;13.88;2.70;;;17.30;99.90;;;;;;4998807;28;20049;-68
2023/09/19 09:58:58;;;;;;;9.43;1.65;;;17.40;99.90;;;;;;5006921;28;20046;-67
2023/09/19 10:01:26;;;;;;;10.57;2.08;;;17.50;99.90;;;;;;5001607;28;20143;-67
2023/09/19 10:03:58;;;;;;;6.80;2.08;;;17.60;99.90;;;;;;4995058;28;20124;-67
2023/09/19 10:06:27;;;;;;;4.55;1.95;;;17.60;99.90;;;;;;4995025;28;20049;-68
2023/09/19 10:09:05;;;;;;;;;;;17.60;99.90;;;;;;5018146;28;20125;-67
2023/09/19 10:11:31;;;;;;;8.65;2.17;;;17.70;99.90;;;;;;5019347;28;19925;-68
2023/09/19 10:14:02;;;;;;;7.57;2.15;;;17.70;99.40;;;;;;5002643;28;20514;-68
2023/09/19 10:16:32;;;;;;;8.52;1.80;;;17.70;99.90;;;;;;5010210;28;20034;-67
2023/09/19 10:19:02;;;;;;;9.20;1.75;;;17.90;99.90;;;;;;5026177;28;20057;-68
2023/09/19 10:21:30;;;;;;;11.43;2.05;;;17.90;99.90;;;;;;5013501;28;20195;-67
2023/09/19 10:23:59;;;;;;;13.55;2.42;;;17.80;99.90;;;;;;5019079;28;20046;-68
2023/09/19 10:26:30;;;;;;;10.90;1.83;;;17.80;98.10;;;;;;5007626;28;20053;-68
2023/09/19 10:29:03;;;;;;;8.23;1.98;;;17.90;98.90;;;;;;5025967;28;20068;-67
2023/09/19 10:31:35;;;;;;;10.68;2.30;;;17.90;99.90;;;;;;4991589;28;20073;-68
2023/09/19 10:34:04;;;;;;;5.38;1.63;;;17.90;99.90;;;;;;5009790;28;20056;-68
2023/09/19 10:36:34;;;;;;;;;;;17.90;99.30;;;;;;4988246;28;20111;-68
2023/09/19 10:39:04;;;;;;;6.88;1.65;;;17.90;98.20;;;;;;5016482;28;20462;-68
2023/09/19 10:41:34;;;;;;;8.05;1.15;;;18.00;99.10;;;;;;5025102;28;20085;-68
2023/09/19 10:44:03;;;;;;;;;;;18.10;95.00;;;;;;5019421;28;20561;-67
2023/09/19 10:46:28;;;;;;;5.45;1.55;;;18.20;95.40;;;;;;5027306;28;20347;-67
2023/09/19 10:49:02;;;;;;;5.72;1.58;;;18.30;93.50;;;;;;5025350;28;20045;-69
2023/09/19 10:51:39;;;;;;;13.68;2.03;;;18.40;91.60;;;;;;5007831;28;20136;-68
2023/09/19 10:54:15;;;;;;;7.53;1.50;;;18.50;90.50;;;;;;5019568;28;20098;-69
2023/09/19 10:56:52;;;;;;;10.07;2.03;;;18.50;90.70;;;;;;4988168;28;20115;-69
2023/09/19 10:59:20;;;;;;;9.68;2.10;;;18.60;81.50;;;;;;5020043;28;20089;-68
2023/09/19 11:01:56;;;;;;;14.55;2.22;;;18.60;90.00;;;;;;4984006;28;20112;-68
2023/09/19 11:04:36;;;;;;;11.05;2.20;;;18.60;83.80;;;;;;5009000;28;20053;-67
2023/09/19 11:07:14;;;;;;;13.55;2.75;;;18.60;80.00;;;;;;5010251;28;20046;-68
2023/09/19 11:09:50;;;;;;;8.43;2.03;;;18.50;79.70;;;;;;5014516;28;20048;-68
2023/09/19 11:12:40;;;;;;;10.18;2.00;;;18.50;76.30;;;;;;5002779;28;20103;-68
2023/09/19 11:15:08;;;;;;;9.30;1.90;;;18.60;76.20;;;;;;5015197;28;20089;-69
2023/09/19 11:17:33;;;;;;;9.85;2.58;;;18.60;81.70;;;;;;5016224;28;20052;-68
2023/09/19 11:22:49;;;;;;;13.32;2.80;;;18.70;69.80;;;;;;5020786;28;20096;-68
2023/09/19 11:25:31;;;;;;;4.47;1.70;;;18.80;69.50;;;;;;5002913;28;20446;-68
2023/09/19 11:28:18;;;;;;;6.80;2.33;;;19.00;74.70;;;;;;5004138;28;20046;-68
2023/09/19 11:30:47;;;;;;;13.35;2.72;;;18.90;58.80;;;;;;5006405;28;20814;-67
2023/09/19 11:33:38;;;;;;;11.50;1.88;;;19.00;73.60;;;;;;5018946;28;20041;-67
2023/09/19 11:36:18;;;;;;;7.55;2.13;;;19.00;66.10;;;;;;5021482;28;20557;-68
2023/09/19 11:38:50;;;;;;;10.95;2.50;;;19.00;47.40;;;;;;5021862;28;20516;-67
2023/09/19 11:41:31;;;;;;;7.93;2.42;;;18.90;48.40;;;;;;5020766;28;20041;-68
2023/09/19 11:44:05;;;;;;;5.10;1.48;;;18.90;56.90;;;;;;5023059;28;20119;-68
2023/09/19 11:46:33;;;;;;;8.85;2.03;;;18.80;52.20;;;;;;5006620;28;20046;-68
2023/09/19 11:49:12;;;;;;;10.32;2.22;;;18.80;46.70;;;;;;5002965;28;20095;-67
2023/09/19 11:51:44;;;;;;;6.72;1.55;;;18.90;49.20;;;;;;5024014;28;20487;-68
2023/09/19 11:54:17;;;;;;;8.75;1.70;;;18.90;44.50;;;;;;5011428;28;20041;-68
2023/09/19 11:56:45;;;;;;;5.75;1.45;;;18.90;48.10;;;;;;5021125;28;20450;-68
2023/09/19 11:59:12;;;;;;;6.78;1.75;;;18.90;45.20;;;;;;5003155;28;20119;-67
2023/09/19 12:01:44;;;;;;;13.75;1.90;;;19.00;50.20;;;;;;5002318;28;20116;-67
2023/09/19 12:04:12;;;;;;;7.63;1.52;;;19.00;41.60;;;;;;5003603;28;20034;-67
2023/09/19 12:06:43;;;;;;;6.40;1.55;;;18.90;40.60;;;;;;4981942;28;20484;-67
2023/09/19 12:09:16;;;;;;;9.55;1.80;;;18.90;34.70;;;;;;5002795;28;20960;-67
2023/09/19 12:11:45;;;;;;;8.75;1.65;;;18.80;43.60;;;;;;4999335;28;20046;-67
2023/09/19 12:14:21;;;;;;;5.80;1.70;;;18.80;45.80;;;;;;4993141;28;20077;-68
2023/09/19 12:16:55;;;;;;;5.32;1.52;;;18.70;45.30;;;;;;5009130;28;20054;-67
2023/09/19 12:19:23;;;;;;;6.10;1.92;;;18.70;42.90;;;;;;5009383;28;20046;-68
2023/09/19 12:22:06;;;;;;;8.68;1.83;;;18.70;50.20;;;;;;4990922;28;20053;-67
2023/09/19 12:24:32;;;;;;;4.10;1.80;;;18.60;42.60;;;;;;5008113;28;20373;-67
2023/09/19 12:27:06;;;;;;;7.38;1.70;;;18.50;45.80;;;;;;5005466;28;20093;-68
2023/09/19 12:29:45;;;;;;;5.57;1.80;;;18.40;48.00;;;;;;5006913;28;20128;-67
2023/09/19 12:32:11;;;;;;;6.13;1.47;;;18.30;54.50;;;;;;5001541;28;20133;-67
2023/09/19 12:34:42;;;;;;;7.00;2.20;;;18.20;52.90;;;;;;5002397;28;20293;-67
2023/09/19 12:37:21;;;;;;;12.35;1.92;;;18.20;53.00;;;;;;5008591;28;20132;-67
2023/09/19 12:39:55;;;;;;;4.47;1.27;;;18.10;54.10;;;;;;4990280;28;20123;-67
2023/09/19 12:42:29;;;;;;;12.07;2.55;;;18.00;57.10;;;;;;4999635;28;20046;-67
2023/09/19 12:44:57;;;;;;;12.05;1.30;;;18.00;56.80;;;;;;5005953;28;20045;-68
2023/09/19 12:47:24;;;;;;;9.63;1.63;;;17.90;51.60;;;;;;5009719;28;20507;-68
2023/09/19 12:50:14;;;;;;;7.45;1.80;;;17.90;54.30;;;;;;4990905;28;20475;-68
2023/09/19 12:52:42;;;;;;;8.77;1.77;;;17.90;60.10;;;;;;4992603;28;20065;-67
2023/09/19 12:55:19;;;;;;;8.52;1.70;;;17.90;58.80;;;;;;5006889;28;20046;-67
2023/09/19 12:57:59;;;;;;;15.48;2.72;;;17.80;62.40;;;;;;5006179;28;20474;-67
2023/09/19 13:00:40;;;;;;;5.78;1.77;;;17.80;57.00;;;;;;5028483;28;20072;-67
2023/09/19 13:03:31;;;;;;;4.15;1.38;;;17.90;58.80;;;;;;5027095;28;20052;-68
2023/09/19 13:06:00;;;;;;;7.85;1.30;;;18.00;61.90;;;;;;5029859;28;20418;-68
2023/09/19 13:08:32;;;;;;;7.10;1.63;;;18.00;61.90;;;;;;5024018;28;20487;-67
2023/09/19 13:11:12;;;;;;;7.70;1.80;;;18.10;66.10;;;;;;5024104;28;20061;-67